createdAt,value
2023-03-17T00:00:50.374Z,101362.38
2023-03-17T00:03:41.590Z,101358.88
2023-03-17T00:06:31.302Z,101353.63
2023-03-17T00:09:19.384Z,101351.00
2023-03-17T00:12:11.655Z,101358.03
2023-03-17T00:14:58.569Z,101363.31
2023-03-17T00:17:46.468Z,101351.97
2023-03-17T00:20:34.490Z,101351.00
2023-03-17T00:23:28.003Z,101347.53
2023-03-17T00:26:15.384Z,101351.06
2023-03-17T00:29:03.053Z,101355.44
2023-03-17T00:31:59.362Z,101352.81
2023-03-17T00:34:49.263Z,101353.69
2023-03-17T00:37:37.747Z,101348.53
2023-03-17T00:40:26.206Z,101342.31
2023-03-17T00:43:13.813Z,101326.56
2023-03-17T00:46:00.856Z,101319.56
2023-03-17T00:48:48.700Z,101290.75
2023-03-17T00:51:35.159Z,101317.03
2023-03-17T00:54:24.235Z,101286.38
2023-03-17T00:57:11.224Z,101308.25
2023-03-17T00:59:58.552Z,101292.47
2023-03-17T01:02:47.454Z,101295.91
2023-03-17T01:05:34.280Z,101296.75
2023-03-17T01:08:22.668Z,101285.41
2023-03-17T01:11:16.355Z,101289.88
2023-03-17T01:14:03.472Z,101293.34
2023-03-17T01:16:50.620Z,101283.72
2023-03-17T01:19:39.291Z,101283.59
2023-03-17T01:22:31.957Z,101286.31
2023-03-17T01:25:19.955Z,101276.69
2023-03-17T01:28:08.543Z,101274.84
2023-03-17T01:30:55.528Z,101268.69
2023-03-17T01:33:42.394Z,101266.81
2023-03-17T01:36:29.294Z,101260.69
2023-03-17T01:39:16.207Z,101257.16
2023-03-17T01:42:02.837Z,101249.38
2023-03-17T01:45:05.687Z,101248.47
2023-03-17T01:47:52.422Z,101251.09
2023-03-17T01:50:39.146Z,101251.19
2023-03-17T01:53:26.266Z,101248.53
2023-03-17T01:56:13.203Z,101245.06
2023-03-17T01:59:03.888Z,101234.50
2023-03-17T02:01:56.766Z,101225.72
2023-03-17T02:04:43.562Z,101231.91
2023-03-17T02:07:31.509Z,101237.09
2023-03-17T02:10:20.591Z,101218.72
2023-03-17T02:13:08.594Z,101222.22
2023-03-17T02:15:57.060Z,101218.66
2023-03-17T02:18:45.412Z,101215.97
2023-03-17T02:21:42.131Z,101212.44
2023-03-17T02:24:37.198Z,101214.22
2023-03-17T02:27:31.431Z,101208.97
2023-03-17T02:30:21.932Z,101202.00
2023-03-17T02:33:08.707Z,101197.56
2023-03-17T02:35:56.530Z,101191.38
2023-03-17T02:38:44.389Z,101192.22
2023-03-17T02:41:31.402Z,101195.72
2023-03-17T02:44:19.120Z,101179.00
2023-03-17T02:47:06.624Z,101175.50
2023-03-17T02:49:53.988Z,101176.41
2023-03-17T02:52:40.662Z,101176.44
2023-03-17T02:55:28.776Z,101175.59
2023-03-17T02:58:15.204Z,101172.91
2023-03-17T03:01:02.332Z,101179.91
2023-03-17T03:03:49.084Z,101174.63
2023-03-17T03:06:36.206Z,101186.91
2023-03-17T03:09:22.885Z,101179.09
2023-03-17T03:12:11.855Z,101175.63
2023-03-17T03:14:58.955Z,101177.31
2023-03-17T03:17:45.665Z,101184.31
2023-03-17T03:20:32.461Z,101185.19
2023-03-17T03:23:18.917Z,101183.44
2023-03-17T03:26:05.795Z,101193.91
2023-03-17T03:28:54.018Z,101190.47
2023-03-17T03:31:40.668Z,101200.94
2023-03-17T03:34:27.979Z,101205.41
2023-03-17T03:37:14.494Z,101205.28
2023-03-17T03:40:01.504Z,101210.53
2023-03-17T03:42:48.086Z,101194.81
2023-03-17T03:45:36.148Z,101209.69
2023-03-17T03:48:23.519Z,101203.59
2023-03-17T03:51:10.533Z,101210.50
2023-03-17T03:53:57.190Z,101194.72
2023-03-17T03:56:43.876Z,101192.09
2023-03-17T03:59:31.803Z,101190.41
2023-03-17T04:02:19.691Z,101188.72
2023-03-17T04:05:07.713Z,101186.06
2023-03-17T04:07:54.424Z,101177.38
2023-03-17T04:10:41.438Z,101176.50
2023-03-17T04:13:28.162Z,101183.53
2023-03-17T04:16:15.002Z,101179.09
2023-03-17T04:19:03.245Z,101174.72
2023-03-17T04:21:50.057Z,101177.31
2023-03-17T04:24:37.300Z,101177.34
2023-03-17T04:27:24.142Z,101169.53
2023-03-17T04:30:13.647Z,101177.38
2023-03-17T04:33:00.214Z,101167.88
2023-03-17T04:35:48.231Z,101154.69
2023-03-17T04:38:34.999Z,101158.06
2023-03-17T04:41:22.320Z,101151.94
2023-03-17T04:44:09.275Z,101144.81
2023-03-17T04:46:55.772Z,101140.53
2023-03-17T04:49:42.562Z,101144.00
2023-03-17T04:52:31.218Z,101154.59
2023-03-17T04:55:20.330Z,101158.06
2023-03-17T04:58:07.787Z,101162.41
2023-03-17T05:00:54.928Z,101164.16
2023-03-17T05:03:41.762Z,101158.06
2023-03-17T05:06:28.330Z,101158.97
2023-03-17T05:09:16.491Z,101161.50
2023-03-17T05:12:03.274Z,101157.28
2023-03-17T05:14:49.998Z,101152.03
2023-03-17T05:17:36.850Z,101151.09
2023-03-17T05:20:24.033Z,101162.47
2023-03-17T05:23:10.678Z,101152.84
2023-03-17T05:25:59.393Z,101140.56
2023-03-17T05:28:47.154Z,101131.81
2023-03-17T05:31:34.331Z,101119.59
2023-03-17T05:34:21.367Z,101136.19
2023-03-17T05:37:12.049Z,101130.13
2023-03-17T05:39:59.573Z,101140.50
2023-03-17T05:42:51.242Z,101147.38
2023-03-17T05:45:39.244Z,101150.00
2023-03-17T05:48:26.572Z,101131.63
2023-03-17T05:51:13.063Z,101142.09
2023-03-17T05:54:00.481Z,101148.16
2023-03-17T05:56:48.511Z,101147.25
2023-03-17T05:59:37.154Z,101151.66
2023-03-17T06:02:24.191Z,101155.16
2023-03-17T06:05:11.662Z,101149.00
2023-03-17T06:07:58.141Z,101155.81
2023-03-17T06:10:45.267Z,101152.38
2023-03-17T06:13:32.113Z,101148.69
2023-03-17T06:16:20.865Z,101140.03
2023-03-17T06:19:07.561Z,101133.75
2023-03-17T06:21:54.451Z,101128.44
2023-03-17T06:24:41.338Z,101124.91
2023-03-17T06:27:28.168Z,101129.25
2023-03-17T06:30:15.205Z,101120.56
2023-03-17T06:33:04.286Z,101128.50
2023-03-17T06:35:51.808Z,101126.75
2023-03-17T06:38:39.414Z,101122.25
2023-03-17T06:41:26.621Z,101118.88
2023-03-17T06:44:13.215Z,101124.00
2023-03-17T06:47:08.522Z,101124.81
2023-03-17T06:49:59.022Z,101123.00
2023-03-17T06:52:47.620Z,101119.59
2023-03-17T06:55:35.770Z,101115.06
2023-03-17T06:58:24.341Z,101083.69
2023-03-17T07:01:12.861Z,101108.88
2023-03-17T07:04:01.853Z,101098.97
2023-03-17T07:06:51.673Z,101110.09
2023-03-17T07:09:40.198Z,101106.63
2023-03-17T07:12:29.327Z,101110.13
2023-03-17T07:15:19.363Z,101111.88
2023-03-17T07:18:08.466Z,101113.44
2023-03-17T07:20:56.852Z,101111.44
2023-03-17T07:23:46.337Z,101114.75
2023-03-17T07:26:33.583Z,101099.91
2023-03-17T07:29:21.414Z,101090.19
2023-03-17T07:32:10.310Z,101081.41
2023-03-17T07:34:57.843Z,101086.47
2023-03-17T07:37:45.954Z,101076.94
2023-03-17T07:40:36.220Z,101074.25
2023-03-17T07:43:23.184Z,101073.19
2023-03-17T07:46:10.277Z,101053.88
2023-03-17T07:48:56.968Z,101052.97
2023-03-17T07:51:44.111Z,101042.19
2023-03-17T07:54:30.613Z,101039.66
2023-03-17T07:57:18.868Z,101042.97
2023-03-17T08:00:09.188Z,101048.19
2023-03-17T08:03:09.468Z,101054.44
2023-03-17T08:05:57.446Z,101053.78
2023-03-17T08:08:44.478Z,101060.53
2023-03-17T08:11:31.183Z,101064.84
2023-03-17T08:14:19.277Z,101054.81
2023-03-17T08:17:06.497Z,101047.69
2023-03-17T08:19:53.717Z,101057.34
2023-03-17T08:22:40.393Z,101049.94
2023-03-17T08:25:27.713Z,101025.25
2023-03-17T08:28:15.469Z,101037.97
2023-03-17T08:31:12.960Z,101038.53
2023-03-17T08:33:59.598Z,101034.16
2023-03-17T08:36:46.361Z,101041.47
2023-03-17T08:39:33.287Z,101023.94
2023-03-17T08:42:20.287Z,101007.19
2023-03-17T08:45:08.021Z,101010.44
2023-03-17T08:47:56.087Z,101008.94
2023-03-17T08:50:43.028Z,101005.91
2023-03-17T08:53:29.993Z,101001.06
2023-03-17T08:56:16.993Z,101005.84
2023-03-17T08:59:05.517Z,100986.41
2023-03-17T09:01:52.700Z,101005.75
2023-03-17T09:04:41.307Z,100992.09
2023-03-17T09:07:27.837Z,100996.41
2023-03-17T09:10:16.896Z,101007.34
2023-03-17T09:13:04.732Z,101003.44
2023-03-17T09:15:51.989Z,101005.84
2023-03-17T09:18:39.103Z,101001.25
2023-03-17T09:21:27.417Z,100991.81
2023-03-17T09:24:14.138Z,100988.75
2023-03-17T09:27:01.469Z,100990.09
2023-03-17T09:29:48.455Z,100990.06
2023-03-17T09:32:34.969Z,100992.56
2023-03-17T09:35:22.530Z,101000.47
2023-03-17T09:38:11.544Z,100989.69
2023-03-17T09:41:01.834Z,100980.66
2023-03-17T09:43:55.891Z,100987.56
2023-03-17T09:46:53.612Z,100969.53
2023-03-17T09:49:45.706Z,100979.59
2023-03-17T09:52:36.365Z,100978.19
2023-03-17T09:55:29.107Z,100986.22
2023-03-17T09:58:16.559Z,100992.31
2023-03-17T10:01:05.375Z,100989.16
2023-03-17T10:03:52.617Z,100961.28
2023-03-17T10:06:43.628Z,100982.84
2023-03-17T10:09:37.170Z,100978.41
2023-03-17T10:12:34.775Z,100970.25
2023-03-17T10:15:26.570Z,100970.66
2023-03-17T10:18:15.194Z,100963.25
2023-03-17T10:21:04.705Z,100972.72
2023-03-17T10:23:52.366Z,100981.13
2023-03-17T10:26:43.182Z,100978.97
2023-03-17T10:29:32.000Z,100979.16
2023-03-17T10:32:18.459Z,100971.13
2023-03-17T10:35:05.879Z,100963.78
2023-03-17T10:38:04.349Z,100964.84
2023-03-17T10:41:00.925Z,100963.13
2023-03-17T10:43:50.743Z,100962.66
2023-03-17T10:46:40.253Z,100966.06
2023-03-17T10:49:27.345Z,100959.19
2023-03-17T10:52:22.299Z,100947.28
2023-03-17T10:55:13.528Z,100952.97
2023-03-17T10:58:04.840Z,100956.22
2023-03-17T11:00:57.335Z,100944.56
2023-03-17T11:03:45.466Z,100947.44
2023-03-17T11:06:39.418Z,100940.88
2023-03-17T11:09:29.257Z,100940.81
2023-03-17T11:12:25.615Z,100934.91
2023-03-17T11:15:16.974Z,100934.47
2023-03-17T11:18:08.081Z,100930.09
2023-03-17T11:21:01.155Z,100929.63
2023-03-17T11:24:08.310Z,100924.78
2023-03-17T11:27:00.292Z,100917.81
2023-03-17T11:30:01.706Z,100924.00
2023-03-17T11:32:57.634Z,100917.13
2023-03-17T11:35:51.600Z,100911.09
2023-03-17T11:38:50.828Z,100909.03
2023-03-17T11:41:46.612Z,100917.03
2023-03-17T11:45:02.878Z,100918.69
2023-03-17T11:48:03.769Z,100904.19
2023-03-17T11:50:57.620Z,100904.13
2023-03-17T11:53:58.068Z,100904.97
2023-03-17T11:56:48.995Z,100901.53
2023-03-17T11:59:40.666Z,100890.06
2023-03-17T12:02:36.866Z,100887.38
2023-03-17T12:05:26.312Z,100890.13
2023-03-17T12:08:22.276Z,100859.09
2023-03-17T12:11:15.354Z,100886.50
2023-03-17T12:14:06.695Z,100876.84
2023-03-17T12:17:01.419Z,100874.66
2023-03-17T12:20:00.716Z,100872.69
2023-03-17T12:22:55.900Z,100864.91
2023-03-17T12:25:52.879Z,100862.47
2023-03-17T12:28:47.757Z,100867.75
2023-03-17T12:31:37.430Z,100866.66
2023-03-17T12:34:31.835Z,100864.44
2023-03-17T12:37:19.395Z,100864.59
2023-03-17T12:40:13.265Z,100862.88
2023-03-17T12:43:20.082Z,100850.06
2023-03-17T12:46:22.559Z,100858.69
2023-03-17T12:49:27.701Z,100848.56
2023-03-17T12:52:22.797Z,100844.41
2023-03-17T12:55:14.962Z,100853.41
2023-03-17T12:58:04.759Z,100843.81
2023-03-17T13:01:02.003Z,100847.38
2023-03-17T13:04:03.444Z,100837.97
2023-03-17T13:07:00.232Z,100831.97
2023-03-17T13:09:49.883Z,100824.34
2023-03-17T13:12:58.036Z,100821.13
2023-03-17T13:15:59.767Z,100818.63
2023-03-17T13:18:51.634Z,100806.97
2023-03-17T13:21:39.959Z,100804.59
2023-03-17T13:24:43.421Z,100807.53
2023-03-17T13:27:44.934Z,100803.38
2023-03-17T13:30:57.357Z,100816.63
2023-03-17T13:33:47.441Z,100805.88
2023-03-17T13:36:45.618Z,100814.53
2023-03-17T13:40:11.083Z,100805.38
2023-03-17T13:43:15.740Z,100800.06
2023-03-17T13:46:22.402Z,100769.47
2023-03-17T13:49:22.446Z,100811.69
2023-03-17T13:52:16.436Z,100808.66
2023-03-17T13:55:07.862Z,100812.19
2023-03-17T13:57:57.792Z,100807.63
2023-03-17T14:00:49.076Z,100795.47
2023-03-17T14:03:43.107Z,100805.75
2023-03-17T14:06:31.698Z,100741.41
2023-03-17T14:09:32.077Z,100809.38
2023-03-17T14:12:27.053Z,100807.78
2023-03-17T14:15:21.477Z,100796.84
2023-03-17T14:18:16.464Z,100792.97
2023-03-17T14:21:10.544Z,100795.22
2023-03-17T14:23:59.694Z,100785.13
2023-03-17T14:26:48.998Z,100786.91
2023-03-17T14:29:35.994Z,100783.56
2023-03-17T14:32:25.469Z,100787.69
2023-03-17T14:35:14.314Z,100775.81
2023-03-17T14:38:01.603Z,100774.94
2023-03-17T14:40:49.073Z,100770.78
2023-03-17T14:43:37.537Z,100771.56
2023-03-17T14:46:26.658Z,100765.69
2023-03-17T14:49:18.700Z,100756.22
2023-03-17T14:52:05.522Z,100752.72
2023-03-17T14:54:54.279Z,100752.78
2023-03-17T14:57:41.010Z,100749.00
2023-03-17T15:00:38.158Z,100755.00
2023-03-17T15:03:28.453Z,100747.19
2023-03-17T15:06:26.478Z,100741.16
2023-03-17T15:09:20.354Z,100735.38
2023-03-17T15:12:14.518Z,100724.66
2023-03-17T15:15:05.628Z,100726.31
2023-03-17T15:17:56.900Z,100731.41
2023-03-17T15:20:45.924Z,100727.53
2023-03-17T15:23:41.424Z,100735.88
2023-03-17T15:26:32.388Z,100725.03
2023-03-17T15:29:19.245Z,100726.31
2023-03-17T15:32:15.403Z,100700.03
2023-03-17T15:35:03.780Z,100656.03
2023-03-17T15:37:50.968Z,100719.41
2023-03-17T15:40:37.687Z,100709.66
2023-03-17T15:43:24.774Z,100638.34
2023-03-17T15:46:21.032Z,100704.22
2023-03-17T15:49:11.734Z,100695.06
2023-03-17T15:52:00.011Z,100693.91
2023-03-17T15:54:47.013Z,100690.56
2023-03-17T15:57:33.940Z,100696.94
2023-03-17T16:00:23.038Z,100696.31
2023-03-17T16:03:18.090Z,100701.56
2023-03-17T16:06:08.431Z,100696.78
2023-03-17T16:08:56.562Z,100695.38
2023-03-17T16:11:43.777Z,100701.19
2023-03-17T16:14:30.850Z,100699.13
2023-03-17T16:17:26.741Z,100696.63
2023-03-17T16:20:23.583Z,100698.34
2023-03-17T16:23:15.450Z,100709.09
2023-03-17T16:26:14.126Z,100713.81
2023-03-17T16:29:01.771Z,100716.06
2023-03-17T16:31:50.792Z,100722.56
2023-03-17T16:34:37.290Z,100718.47
2023-03-17T16:37:24.171Z,100719.16
2023-03-17T16:40:19.039Z,100722.06
2023-03-17T16:43:24.989Z,100708.38
2023-03-17T16:46:12.867Z,100708.28
2023-03-17T16:48:59.663Z,100706.50
2023-03-17T16:51:47.403Z,100712.31
2023-03-17T16:54:35.384Z,100697.44
2023-03-17T16:57:22.283Z,100692.59
2023-03-17T17:00:17.211Z,100699.59
2023-03-17T17:03:03.885Z,100695.78
2023-03-17T17:05:51.117Z,100693.41
2023-03-17T17:08:37.813Z,100696.78
2023-03-17T17:11:24.619Z,100696.59
2023-03-17T17:14:11.513Z,100680.81
2023-03-17T17:17:00.643Z,100691.38
2023-03-17T17:19:47.268Z,100689.72
2023-03-17T17:22:34.330Z,100683.38
2023-03-17T17:25:21.068Z,100678.47
2023-03-17T17:28:08.567Z,100692.84
2023-03-17T17:30:55.309Z,100688.75
2023-03-17T17:33:45.708Z,100681.28
2023-03-17T17:36:32.470Z,100688.00
2023-03-17T17:39:19.319Z,100690.69
2023-03-17T17:42:06.626Z,100695.94
2023-03-17T17:44:53.491Z,100695.94
2023-03-17T17:47:40.364Z,100693.13
2023-03-17T17:50:32.179Z,100696.53
2023-03-17T17:53:19.298Z,100694.34
2023-03-17T17:56:06.146Z,100699.38
2023-03-17T17:58:52.771Z,100696.13
2023-03-17T18:01:39.636Z,100693.94
2023-03-17T18:04:26.115Z,100696.09
2023-03-17T18:07:14.176Z,100694.97
2023-03-17T18:10:02.295Z,100701.22
2023-03-17T18:12:49.359Z,100688.47
2023-03-17T18:15:36.319Z,100701.28
2023-03-17T18:18:22.869Z,100700.56
2023-03-17T18:21:10.452Z,100700.63
2023-03-17T18:23:58.579Z,100697.66
2023-03-17T18:26:45.166Z,100701.25
2023-03-17T18:29:31.971Z,100699.25
2023-03-17T18:32:18.914Z,100703.03
2023-03-17T18:35:10.490Z,100699.25
2023-03-17T18:37:58.039Z,100676.25
2023-03-17T18:40:46.442Z,100698.44
2023-03-17T18:43:33.321Z,100690.88
2023-03-17T18:46:20.067Z,100678.78
2023-03-17T18:49:08.872Z,100677.38
2023-03-17T18:51:56.745Z,100675.81
2023-03-17T18:54:43.522Z,100671.69
2023-03-17T18:57:31.463Z,100682.13
2023-03-17T19:00:18.997Z,100668.97
2023-03-17T19:03:05.763Z,100680.75
2023-03-17T19:05:52.497Z,100679.69
2023-03-17T19:08:39.446Z,100677.75
2023-03-17T19:11:26.207Z,100671.19
2023-03-17T19:14:14.392Z,100667.19
2023-03-17T19:17:01.208Z,100672.06
2023-03-17T19:19:50.321Z,100669.41
2023-03-17T19:22:37.201Z,100658.31
2023-03-17T19:25:24.384Z,100660.22
2023-03-17T19:28:10.901Z,100659.16
2023-03-17T19:30:59.641Z,100653.38
2023-03-17T19:33:46.362Z,100660.81
2023-03-17T19:36:37.077Z,100662.53
2023-03-17T19:39:23.628Z,100658.66
2023-03-17T19:42:12.108Z,100657.41
2023-03-17T19:44:59.100Z,100653.09
2023-03-17T19:47:47.188Z,100647.44
2023-03-17T19:50:34.164Z,100654.72
2023-03-17T19:53:20.766Z,100658.06
2023-03-17T19:56:08.184Z,100667.75
2023-03-17T19:58:55.537Z,100671.41
2023-03-17T20:01:42.779Z,100665.84
2023-03-17T20:04:31.112Z,100665.91
2023-03-17T20:07:17.612Z,100672.38
2023-03-17T20:10:06.612Z,100655.47
2023-03-17T20:12:53.112Z,100673.81
2023-03-17T20:15:40.201Z,100678.06
2023-03-17T20:18:31.300Z,100685.03
2023-03-17T20:21:19.842Z,100682.13
2023-03-17T20:24:07.069Z,100683.59
2023-03-17T20:26:57.196Z,100688.44
2023-03-17T20:29:44.406Z,100679.91
2023-03-17T20:32:31.038Z,100680.72
2023-03-17T20:35:18.855Z,100675.34
2023-03-17T20:38:07.477Z,100674.59
2023-03-17T20:40:54.133Z,100668.69
2023-03-17T20:43:41.786Z,100668.38
2023-03-17T20:46:28.644Z,100665.34
2023-03-17T20:49:17.027Z,100664.59
2023-03-17T20:52:06.053Z,100674.84
2023-03-17T20:54:54.820Z,100675.72
2023-03-17T20:57:45.401Z,100676.66
2023-03-17T21:00:33.010Z,100676.78
2023-03-17T21:03:19.866Z,100674.59
2023-03-17T21:06:06.794Z,100672.34
2023-03-17T21:08:53.799Z,100663.75
2023-03-17T21:11:42.256Z,100667.16
2023-03-17T21:14:29.082Z,100661.56
2023-03-17T21:17:18.126Z,100671.50
2023-03-17T21:20:06.161Z,100674.22
2023-03-17T21:22:53.888Z,100649.31
2023-03-17T21:25:42.145Z,100671.81
2023-03-17T21:28:41.630Z,100667.81
2023-03-17T21:31:30.542Z,100663.28
2023-03-17T21:34:18.381Z,100656.28
2023-03-17T21:37:07.861Z,100652.44
2023-03-17T21:39:54.736Z,100656.19
2023-03-17T21:42:41.348Z,100660.78
2023-03-17T21:45:29.736Z,100657.44
2023-03-17T21:48:16.570Z,100651.63
2023-03-17T21:51:03.595Z,100655.94
2023-03-17T21:53:50.273Z,100650.75
2023-03-17T21:56:37.672Z,100649.94
2023-03-17T21:59:25.028Z,100651.78
2023-03-17T22:02:13.708Z,100651.69
2023-03-17T22:05:01.027Z,100645.00
2023-03-17T22:07:47.561Z,100645.50
2023-03-17T22:10:34.464Z,100635.38
2023-03-17T22:13:21.346Z,100635.41
2023-03-17T22:16:09.544Z,100642.34
2023-03-17T22:18:57.520Z,100638.31
2023-03-17T22:21:44.270Z,100642.00
2023-03-17T22:24:32.548Z,100637.84
2023-03-17T22:27:19.736Z,100633.16
2023-03-17T22:30:07.045Z,100633.09
2023-03-17T22:32:53.637Z,100632.72
2023-03-17T22:35:42.473Z,100628.63
2023-03-17T22:38:29.286Z,100638.47
2023-03-17T22:41:18.510Z,100635.03
2023-03-17T22:44:06.127Z,100634.72
2023-03-17T22:46:52.586Z,100635.75
2023-03-17T22:49:39.502Z,100640.44
2023-03-17T22:52:27.875Z,100628.78
2023-03-17T22:55:15.695Z,100596.22
2023-03-17T22:58:02.413Z,100632.31
2023-03-17T23:00:50.585Z,100627.91
2023-03-17T23:03:37.707Z,100624.34
2023-03-17T23:06:25.184Z,100615.59
2023-03-17T23:09:13.340Z,100617.38
2023-03-17T23:12:00.760Z,100615.94
2023-03-17T23:14:47.585Z,100613.03
2023-03-17T23:17:34.436Z,100612.47
2023-03-17T23:20:21.329Z,100623.19
2023-03-17T23:23:08.499Z,100614.53
2023-03-17T23:25:56.445Z,100617.03
2023-03-17T23:28:44.428Z,100626.38
2023-03-17T23:31:32.169Z,100626.22
2023-03-17T23:34:18.932Z,100614.78
2023-03-17T23:37:05.774Z,100613.38
2023-03-17T23:39:52.692Z,100614.66
2023-03-17T23:42:48.121Z,100607.63
2023-03-17T23:45:35.513Z,100605.72
2023-03-17T23:48:27.568Z,100609.00
2023-03-17T23:51:14.576Z,100601.16
2023-03-17T23:54:01.481Z,100603.06
2023-03-17T23:56:48.523Z,100602.84
2023-03-17T23:59:37.180Z,100608.00
